Terminal Aerodrome Forecast
Issued by NWS Austin/San Antonio, TX

Home | Current Version | Previous Version | Text Only | Print | Product List | Glossary On
Versions: 1 2 3 4 5 6 7 8 9 10 11 12 13 14 15 16 17 18 19 20 21 22 23 24 25 26
533
FTUS44 KEWX 211120
TAFDRT
TAF
KDRT 211120Z 2112/2212 10013KT P6SM SCT250
     FM211300 13010G18KT P6SM SCT015
     FM220100 13011KT P6SM BKN250=

USA.gov is the U.S. government's official web portal to all federal, state and local government web resources and services.